This is the latest recevied weather packets stored in our database for station/object DD5ZT-13. If no packets are shown the sender has not sent any weather packets the latest 10 day(s).
| Time | Temp. | Humidity | Pressure | Rain* | Wind** | Luminosity | Snow |
|---|---|---|---|---|---|---|---|
| 1777714428 | 26.11° C | 34% | 1020.7 hPa | 0 mm | - | - | - |
| 1777713803 | 25.56° C | 35% | 1020.8 hPa | 0 mm | - | - | - |
| 1777713178 | 25° C | 35% | 1020.8 hPa | 0 mm | - | - | - |
| 1777712552 | 25.56° C | 35% | 1020.9 hPa | 0 mm | - | - | - |
| 1777711927 | 32.22° C | 25% | 1021 hPa | 0 mm | - | - | - |
| 1777711302 | 26.67° C | 33% | 1021.2 hPa | 0 mm | - | - | - |
| 1777710676 | 23.33° C | 40% | 1021.3 hPa | 0 mm | - | - | - |
| 1777710051 | 22.22° C | 43% | 1021.4 hPa | 0 mm | - | - | - |
| 1777709426 | 21.67° C | 43% | 1021.5 hPa | 0 mm | - | - | - |
| 1777671337 | 18.89° C | 52% | 1025.7 hPa | 0 mm | - | - | - |
| 1777670187 | 18.89° C | 52% | 1025.8 hPa | 0 mm | - | - | - |
| 1777669534 | 19.44° C | 51% | 1025.9 hPa | 0 mm | - | - | - |
| 1777669073 | 19.44° C | 51% | 1026 hPa | 0 mm | - | - | - |
| 1777665671 | 19.44° C | 50% | 1026.1 hPa | 0 mm | - | - | - |
| 1777665442 | 19.44° C | 50% | 1026.1 hPa | 0 mm | - | - | - |
| 1777664540 | 19.44° C | 50% | 1026.1 hPa | 0 mm | - | - | - |
| 1777663221 | 19.44° C | 49% | 1026.1 hPa | 0 mm | - | - | - |
| 1777662086 | 20° C | 49% | 1026.3 hPa | 0 mm | - | - | - |
| 1777659487 | 20° C | 48% | 1026.3 hPa | 0 mm | - | - | - |
| 1777657586 | 20° C | 48% | 1026.3 hPa | 0 mm | - | - | - |
| 1777656423 | 20° C | 47% | 1026.5 hPa | 0 mm | - | - | - |
| 1777655786 | 20° C | 47% | 1026.6 hPa | 0 mm | - | - | - |
| 1777652819 | 20.56° C | 46% | 1027.3 hPa | 0 mm | - | - | - |
| 1777648809 | 20.56° C | 45% | 1028.1 hPa | 0 mm | - | - | - |
| 1777645886 | 20.56° C | 45% | 1028.5 hPa | 0 mm | - | - | - |
* Rain latest hour (hover to see other rain measurements)
** Current wind speed in m/s (hover to see current wind gust speed)